sensor_id;sensor_type;location;lat;lon;timestamp;pressure;altitude;pressure_sealevel;temperature;humidity
15794;BME280;7999;51.208;4.244;2022-12-20T00:01:23;101283.88;;;9.61;100.00
15794;BME280;7999;51.208;4.244;2022-12-20T00:03:51;101279.56;;;9.62;100.00
15794;BME280;7999;51.208;4.244;2022-12-20T00:06:18;101277.81;;;9.60;100.00
15794;BME280;7999;51.208;4.244;2022-12-20T00:08:46;101269.97;;;9.57;100.00
15794;BME280;7999;51.208;4.244;2022-12-20T00:11:13;101286.22;;;9.41;100.00
15794;BME280;7999;51.208;4.244;2022-12-20T00:13:40;101274.97;;;9.39;100.00
15794;BME280;7999;51.208;4.244;2022-12-20T00:16:09;101272.41;;;9.42;100.00
15794;BME280;7999;51.208;4.244;2022-12-20T00:18:37;101266.16;;;9.26;100.00
15794;BME280;7999;51.208;4.244;2022-12-20T00:21:05;101263.59;;;9.31;100.00
15794;BME280;7999;51.208;4.244;2022-12-20T00:23:32;101268.75;;;9.26;100.00
15794;BME280;7999;51.208;4.244;2022-12-20T00:26:01;101255.72;;;9.20;100.00
15794;BME280;7999;51.208;4.244;2022-12-20T00:28:28;101263.50;;;9.22;100.00
15794;BME280;7999;51.208;4.244;2022-12-20T00:30:56;101261.00;;;9.31;100.00
15794;BME280;7999;51.208;4.244;2022-12-20T00:33:24;101260.88;;;9.19;100.00
15794;BME280;7999;51.208;4.244;2022-12-20T00:35:50;101261.69;;;9.15;100.00
15794;BME280;7999;51.208;4.244;2022-12-20T00:38:18;101255.66;;;9.14;100.00
15794;BME280;7999;51.208;4.244;2022-12-20T00:40:45;101253.06;;;9.16;100.00
15794;BME280;7999;51.208;4.244;2022-12-20T00:43:11;101258.16;;;9.07;100.00
15794;BME280;7999;51.208;4.244;2022-12-20T00:45:38;101242.59;;;9.07;100.00
15794;BME280;7999;51.208;4.244;2022-12-20T00:48:05;101234.81;;;9.08;100.00
15794;BME280;7999;51.208;4.244;2022-12-20T00:50:33;101231.38;;;9.09;100.00
15794;BME280;7999;51.208;4.244;2022-12-20T00:53:00;101232.25;;;9.08;100.00
15794;BME280;7999;51.208;4.244;2022-12-20T00:55:27;101230.47;;;9.06;100.00
15794;BME280;7999;51.208;4.244;2022-12-20T00:57:54;101230.56;;;9.15;100.00
15794;BME280;7999;51.208;4.244;2022-12-20T01:00:21;101225.38;;;9.15;100.00
15794;BME280;7999;51.208;4.244;2022-12-20T01:02:48;101213.25;;;9.11;100.00
15794;BME280;7999;51.208;4.244;2022-12-20T01:05:14;101208.13;;;9.17;100.00
15794;BME280;7999;51.208;4.244;2022-12-20T01:07:43;101206.44;;;9.20;100.00
15794;BME280;7999;51.208;4.244;2022-12-20T01:10:09;101212.31;;;9.04;100.00
15794;BME280;7999;51.208;4.244;2022-12-20T01:12:36;101221.97;;;9.19;100.00
15794;BME280;7999;51.208;4.244;2022-12-20T01:15:03;101227.09;;;9.13;100.00
15794;BME280;7999;51.208;4.244;2022-12-20T01:17:30;101212.50;;;9.22;100.00
15794;BME280;7999;51.208;4.244;2022-12-20T01:19:57;101213.28;;;9.14;100.00
15794;BME280;7999;51.208;4.244;2022-12-20T01:22:23;101213.34;;;9.20;100.00
15794;BME280;7999;51.208;4.244;2022-12-20T01:24:51;101232.31;;;9.16;100.00
15794;BME280;7999;51.208;4.244;2022-12-20T01:27:18;101235.00;;;9.23;100.00
15794;BME280;7999;51.208;4.244;2022-12-20T01:29:45;101226.19;;;9.09;100.00
15794;BME280;7999;51.208;4.244;2022-12-20T01:32:12;101213.28;;;9.14;100.00
15794;BME280;7999;51.208;4.244;2022-12-20T01:34:39;101218.53;;;9.20;100.00
15794;BME280;7999;51.208;4.244;2022-12-20T01:37:06;101218.59;;;9.26;100.00
15794;BME280;7999;51.208;4.244;2022-12-20T01:39:34;101201.22;;;9.19;100.00
15794;BME280;7999;51.208;4.244;2022-12-20T01:42:02;101212.56;;;9.30;100.00
15794;BME280;7999;51.208;4.244;2022-12-20T01:47:14;101222.22;;;9.40;100.00
15794;BME280;7999;51.208;4.244;2022-12-20T01:49:41;101211.91;;;9.46;100.00
15794;BME280;7999;51.208;4.244;2022-12-20T01:52:10;101212.91;;;9.59;100.00
15794;BME280;7999;51.208;4.244;2022-12-20T01:54:39;101205.00;;;9.51;100.00
15794;BME280;7999;51.208;4.244;2022-12-20T01:57:09;101209.38;;;9.57;100.00
15794;BME280;7999;51.208;4.244;2022-12-20T01:59:38;101218.00;;;9.51;100.00
15794;BME280;7999;51.208;4.244;2022-12-20T02:02:06;101208.50;;;9.53;100.00
15794;BME280;7999;51.208;4.244;2022-12-20T02:04:35;101211.13;;;9.58;100.00
15794;BME280;7999;51.208;4.244;2022-12-20T02:07:01;101216.38;;;9.59;100.00
15794;BME280;7999;51.208;4.244;2022-12-20T02:09:29;101215.44;;;9.57;100.00
15794;BME280;7999;51.208;4.244;2022-12-20T02:12:00;101210.31;;;9.60;100.00
15794;BME280;7999;51.208;4.244;2022-12-20T02:17:22;101211.31;;;9.76;100.00
15794;BME280;7999;51.208;4.244;2022-12-20T02:20:00;101202.53;;;9.62;100.00
15794;BME280;7999;51.208;4.244;2022-12-20T02:22:34;101196.28;;;9.43;100.00
15794;BME280;7999;51.208;4.244;2022-12-20T02:25:21;101198.03;;;9.44;100.00
15794;BME280;7999;51.208;4.244;2022-12-20T02:27:56;101184.22;;;9.45;100.00
15794;BME280;7999;51.208;4.244;2022-12-20T02:30:26;101204.31;;;9.65;100.00
15794;BME280;7999;51.208;4.244;2022-12-20T02:32:58;101186.97;;;9.60;100.00
15794;BME280;7999;51.208;4.244;2022-12-20T02:35:28;101194.69;;;9.57;100.00
15794;BME280;7999;51.208;4.244;2022-12-20T02:37:57;101194.69;;;9.57;100.00
15794;BME280;7999;51.208;4.244;2022-12-20T02:40:24;101193.03;;;9.63;100.00
15794;BME280;7999;51.208;4.244;2022-12-20T02:42:54;101180.84;;;9.58;100.00
15794;BME280;7999;51.208;4.244;2022-12-20T02:45:24;101173.00;;;9.51;100.00
15794;BME280;7999;51.208;4.244;2022-12-20T02:47:53;101168.72;;;9.54;100.00
15794;BME280;7999;51.208;4.244;2022-12-20T02:50:22;101163.50;;;9.51;100.00
15794;BME280;7999;51.208;4.244;2022-12-20T02:52:50;101157.59;;;9.69;100.00
15794;BME280;7999;51.208;4.244;2022-12-20T02:55:17;101151.53;;;9.69;100.00
15794;BME280;7999;51.208;4.244;2022-12-20T02:57:48;101158.50;;;9.76;100.00
15794;BME280;7999;51.208;4.244;2022-12-20T03:00:17;101149.09;;;9.87;100.00
15794;BME280;7999;51.208;4.244;2022-12-20T03:02:45;101162.09;;;9.90;100.00
15794;BME280;7999;51.208;4.244;2022-12-20T03:05:32;101158.56;;;9.83;100.00
15794;BME280;7999;51.208;4.244;2022-12-20T03:08:00;101160.28;;;9.80;100.00
15794;BME280;7999;51.208;4.244;2022-12-20T03:10:27;101168.16;;;9.89;100.00
15794;BME280;7999;51.208;4.244;2022-12-20T03:12:54;101175.94;;;9.89;100.00
15794;BME280;7999;51.208;4.244;2022-12-20T03:15:22;101174.22;;;9.91;100.00
15794;BME280;7999;51.208;4.244;2022-12-20T03:17:52;101181.03;;;9.77;100.00
15794;BME280;7999;51.208;4.244;2022-12-20T03:20:18;101179.34;;;9.85;100.00
15794;BME280;7999;51.208;4.244;2022-12-20T03:22:46;101174.28;;;10.00;100.00
15794;BME280;7999;51.208;4.244;2022-12-20T03:25:14;101171.59;;;9.86;100.00
15794;BME280;7999;51.208;4.244;2022-12-20T03:27:41;101170.69;;;9.86;100.00
15794;BME280;7999;51.208;4.244;2022-12-20T03:30:08;101172.56;;;9.99;100.00
15794;BME280;7999;51.208;4.244;2022-12-20T03:32:36;101162.91;;;9.84;100.00
15794;BME280;7999;51.208;4.244;2022-12-20T03:35:03;101173.28;;;9.81;100.00
15794;BME280;7999;51.208;4.244;2022-12-20T03:37:34;101169.88;;;9.87;100.00
15794;BME280;7999;51.208;4.244;2022-12-20T03:40:05;101172.50;;;9.90;100.00
15794;BME280;7999;51.208;4.244;2022-12-20T03:42:32;101182.91;;;9.93;100.00
15794;BME280;7999;51.208;4.244;2022-12-20T03:44:59;101168.19;;;9.94;100.00
15794;BME280;7999;51.208;4.244;2022-12-20T03:47:28;101175.03;;;9.85;100.00
15794;BME280;7999;51.208;4.244;2022-12-20T03:49:55;101171.56;;;9.85;100.00
15794;BME280;7999;51.208;4.244;2022-12-20T03:52:22;101165.50;;;9.83;100.00
15794;BME280;7999;51.208;4.244;2022-12-20T03:54:49;101155.00;;;9.69;100.00
15794;BME280;7999;51.208;4.244;2022-12-20T03:57:20;101165.41;;;9.72;100.00
15794;BME280;7999;51.208;4.244;2022-12-20T03:59:49;101155.22;;;9.95;100.00
15794;BME280;7999;51.208;4.244;2022-12-20T04:02:18;101149.16;;;9.96;100.00
15794;BME280;7999;51.208;4.244;2022-12-20T04:04:45;101150.00;;;9.92;100.00
15794;BME280;7999;51.208;4.244;2022-12-20T04:07:13;101140.50;;;9.94;100.00
15794;BME280;7999;51.208;4.244;2022-12-20T04:09:43;101136.22;;;10.02;100.00
15794;BME280;7999;51.208;4.244;2022-12-20T04:12:12;101128.44;;;10.05;100.00
15794;BME280;7999;51.208;4.244;2022-12-20T04:14:40;101119.06;;;10.23;100.00
15794;BME280;7999;51.208;4.244;2022-12-20T04:17:07;101112.84;;;10.05;100.00
15794;BME280;7999;51.208;4.244;2022-12-20T04:19:35;101109.38;;;10.06;100.00
15794;BME280;7999;51.208;4.244;2022-12-20T04:22:03;101105.91;;;10.04;100.00
15794;BME280;7999;51.208;4.244;2022-12-20T04:24:38;101105.94;;;10.06;100.00
15794;BME280;7999;51.208;4.244;2022-12-20T04:27:13;101100.75;;;10.10;100.00
15794;BME280;7999;51.208;4.244;2022-12-20T04:29:42;101101.59;;;10.08;100.00
15794;BME280;7999;51.208;4.244;2022-12-20T04:32:13;101097.28;;;10.08;100.00
15794;BME280;7999;51.208;4.244;2022-12-20T04:34:39;101100.75;;;10.13;100.00
15794;BME280;7999;51.208;4.244;2022-12-20T04:37:06;101095.59;;;10.15;100.00
15794;BME280;7999;51.208;4.244;2022-12-20T04:39:42;101091.22;;;10.09;100.00
15794;BME280;7999;51.208;4.244;2022-12-20T04:42:38;101086.88;;;10.08;100.00
15794;BME280;7999;51.208;4.244;2022-12-20T04:45:09;101077.34;;;10.07;100.00
15794;BME280;7999;51.208;4.244;2022-12-20T04:47:35;101079.94;;;10.04;100.00
15794;BME280;7999;51.208;4.244;2022-12-20T04:50:04;101065.28;;;10.14;100.00
15794;BME280;7999;51.208;4.244;2022-12-20T04:52:30;101063.63;;;10.20;100.00
15794;BME280;7999;51.208;4.244;2022-12-20T04:55:15;101066.97;;;10.07;100.00
15794;BME280;7999;51.208;4.244;2022-12-20T04:57:42;101071.38;;;10.16;100.00
15794;BME280;7999;51.208;4.244;2022-12-20T05:00:11;101068.75;;;10.14;100.00
15794;BME280;7999;51.208;4.244;2022-12-20T05:02:42;101083.50;;;10.17;100.00
15794;BME280;7999;51.208;4.244;2022-12-20T05:05:12;101077.38;;;10.10;100.00
15794;BME280;7999;51.208;4.244;2022-12-20T05:07:45;101056.69;;;10.23;100.00
15794;BME280;7999;51.208;4.244;2022-12-20T05:10:12;101064.53;;;10.29;100.00
15794;BME280;7999;51.208;4.244;2022-12-20T05:12:39;101049.72;;;10.15;100.00
15794;BME280;7999;51.208;4.244;2022-12-20T05:15:11;101041.13;;;10.26;100.00
15794;BME280;7999;51.208;4.244;2022-12-20T05:17:38;101051.41;;;10.10;100.00
15794;BME280;7999;51.208;4.244;2022-12-20T05:20:05;101062.66;;;10.12;100.00
15794;BME280;7999;51.208;4.244;2022-12-20T05:22:32;101055.69;;;10.04;100.00
15794;BME280;7999;51.208;4.244;2022-12-20T05:25:16;101056.59;;;10.07;100.00
15794;BME280;7999;51.208;4.244;2022-12-20T05:28:04;101040.91;;;9.89;100.00
15794;BME280;7999;51.208;4.244;2022-12-20T05:30:35;101051.38;;;10.04;100.00
15794;BME280;7999;51.208;4.244;2022-12-20T05:33:02;101038.38;;;10.06;100.00
15794;BME280;7999;51.208;4.244;2022-12-20T05:35:30;101037.47;;;9.93;100.00
15794;BME280;7999;51.208;4.244;2022-12-20T05:38:03;101029.69;;;9.91;100.00
15794;BME280;7999;51.208;4.244;2022-12-20T05:40:30;101018.47;;;10.03;100.00
15794;BME280;7999;51.208;4.244;2022-12-20T05:42:57;101020.19;;;9.98;100.00
15794;BME280;7999;51.208;4.244;2022-12-20T05:45:33;101014.16;;;10.11;100.00
15794;BME280;7999;51.208;4.244;2022-12-20T05:48:06;101010.69;;;10.05;100.00
15794;BME280;7999;51.208;4.244;2022-12-20T05:50:36;101002.88;;;10.00;100.00
15794;BME280;7999;51.208;4.244;2022-12-20T05:53:26;101006.34;;;10.05;100.00
15794;BME280;7999;51.208;4.244;2022-12-20T05:55:56;100999.41;;;10.04;100.00
15794;BME280;7999;51.208;4.244;2022-12-20T05:58:27;101008.94;;;10.04;100.00
15794;BME280;7999;51.208;4.244;2022-12-20T06:00:59;101000.28;;;10.00;100.00
15794;BME280;7999;51.208;4.244;2022-12-20T06:03:27;101002.00;;;10.01;100.00
15794;BME280;7999;51.208;4.244;2022-12-20T06:05:54;100994.22;;;10.04;100.00
15794;BME280;7999;51.208;4.244;2022-12-20T06:08:27;100995.91;;;9.93;100.00
15794;BME280;7999;51.208;4.244;2022-12-20T06:10:55;100997.72;;;10.09;100.00
15794;BME280;7999;51.208;4.244;2022-12-20T06:13:22;100998.53;;;9.93;100.00
15794;BME280;7999;51.208;4.244;2022-12-20T06:15:52;100989.03;;;10.07;100.00
15794;BME280;7999;51.208;4.244;2022-12-20T06:18:19;101004.63;;;10.04;100.00
15794;BME280;7999;51.208;4.244;2022-12-20T06:20:51;101004.63;;;10.04;100.00
15794;BME280;7999;51.208;4.244;2022-12-20T06:23:21;101007.22;;;10.01;100.00
15794;BME280;7999;51.208;4.244;2022-12-20T06:26:04;100995.94;;;10.02;100.00
15794;BME280;7999;51.208;4.244;2022-12-20T06:28:35;100999.44;;;10.10;100.00
15794;BME280;7999;51.208;4.244;2022-12-20T06:31:07;101000.31;;;10.09;100.00
15794;BME280;7999;51.208;4.244;2022-12-20T06:33:39;101005.47;;;9.99;100.00
15794;BME280;7999;51.208;4.244;2022-12-20T06:36:07;101014.22;;;10.17;100.00
15794;BME280;7999;51.208;4.244;2022-12-20T06:38:34;101002.97;;;10.18;100.00
15794;BME280;7999;51.208;4.244;2022-12-20T06:41:01;101007.28;;;10.15;100.00
15794;BME280;7999;51.208;4.244;2022-12-20T06:43:27;101010.75;;;10.17;100.00
15794;BME280;7999;51.208;4.244;2022-12-20T06:45:54;101016.88;;;10.30;100.00
15794;BME280;7999;51.208;4.244;2022-12-20T06:48:21;101018.59;;;10.28;100.00
15794;BME280;7999;51.208;4.244;2022-12-20T06:50:48;101014.22;;;10.19;100.00
15794;BME280;7999;51.208;4.244;2022-12-20T06:53:17;101021.97;;;10.11;100.00
15794;BME280;7999;51.208;4.244;2022-12-20T06:55:45;101021.22;;;10.31;100.00
15794;BME280;7999;51.208;4.244;2022-12-20T06:58:15;101025.53;;;10.26;100.00
15794;BME280;7999;51.208;4.244;2022-12-20T07:00:41;101016.81;;;10.17;100.00
15794;BME280;7999;51.208;4.244;2022-12-20T07:03:10;101028.06;;;10.19;100.00
15794;BME280;7999;51.208;4.244;2022-12-20T07:05:37;101032.41;;;10.17;100.00
15794;BME280;7999;51.208;4.244;2022-12-20T07:08:04;101034.06;;;10.03;100.00
15794;BME280;7999;51.208;4.244;2022-12-20T07:10:32;101036.59;;;9.93;100.00
15794;BME280;7999;51.208;4.244;2022-12-20T07:12:59;101037.47;;;9.90;100.00
15794;BME280;7999;51.208;4.244;2022-12-20T07:15:28;101040.00;;;9.84;100.00
15794;BME280;7999;51.208;4.244;2022-12-20T07:17:55;101046.06;;;9.86;100.00
15794;BME280;7999;51.208;4.244;2022-12-20T07:20:22;101045.13;;;9.73;100.00
15794;BME280;7999;51.208;4.244;2022-12-20T07:22:48;101054.66;;;9.76;100.00
15794;BME280;7999;51.208;4.244;2022-12-20T07:25:16;101052.03;;;9.68;100.00
15794;BME280;7999;51.208;4.244;2022-12-20T07:27:46;101049.31;;;9.54;100.00
15794;BME280;7999;51.208;4.244;2022-12-20T07:30:14;101052.69;;;9.41;100.00
15794;BME280;7999;51.208;4.244;2022-12-20T07:32:53;101054.44;;;9.42;100.00
15794;BME280;7999;51.208;4.244;2022-12-20T07:35:20;101057.03;;;9.42;100.00
15794;BME280;7999;51.208;4.244;2022-12-20T07:37:47;101059.63;;;9.41;100.00
15794;BME280;7999;51.208;4.244;2022-12-20T07:40:14;101054.41;;;9.39;100.00
15794;BME280;7999;51.208;4.244;2022-12-20T07:42:41;101050.06;;;9.37;100.00
15794;BME280;7999;51.208;4.244;2022-12-20T07:45:09;101053.56;;;9.43;100.00
15794;BME280;7999;51.208;4.244;2022-12-20T07:47:37;101046.53;;;9.28;100.00
15794;BME280;7999;51.208;4.244;2022-12-20T07:50:04;101057.66;;;9.14;100.00
15794;BME280;7999;51.208;4.244;2022-12-20T07:52:32;101063.72;;;9.14;100.00
15794;BME280;7999;51.208;4.244;2022-12-20T07:55:02;101057.66;;;9.14;100.00
15794;BME280;7999;51.208;4.244;2022-12-20T07:57:30;101047.34;;;9.23;100.00
15794;BME280;7999;51.208;4.244;2022-12-20T07:59:58;101046.47;;;9.19;100.00
15794;BME280;7999;51.208;4.244;2022-12-20T08:02:30;101044.69;;;9.14;100.00
15794;BME280;7999;51.208;4.244;2022-12-20T08:04:58;101049.00;;;9.15;100.00
15794;BME280;7999;51.208;4.244;2022-12-20T08:07:25;101050.75;;;9.14;100.00
15794;BME280;7999;51.208;4.244;2022-12-20T08:09:53;101054.19;;;9.12;100.00
15794;BME280;7999;51.208;4.244;2022-12-20T08:12:21;101037.72;;;9.08;100.00
15794;BME280;7999;51.208;4.244;2022-12-20T08:14:48;101038.63;;;9.12;100.00
15794;BME280;7999;51.208;4.244;2022-12-20T08:17:16;101036.84;;;9.06;100.00
15794;BME280;7999;51.208;4.244;2022-12-20T08:19:45;101023.88;;;9.05;100.00
15794;BME280;7999;51.208;4.244;2022-12-20T08:22:11;101035.03;;;9.01;100.00
15794;BME280;7999;51.208;4.244;2022-12-20T08:24:38;101035.06;;;9.02;100.00
15794;BME280;7999;51.208;4.244;2022-12-20T08:27:05;101035.06;;;9.04;100.00
15794;BME280;7999;51.208;4.244;2022-12-20T08:29:31;101048.84;;;8.99;100.00
15794;BME280;7999;51.208;4.244;2022-12-20T08:31:58;101045.44;;;9.04;100.00
15794;BME280;7999;51.208;4.244;2022-12-20T08:34:25;101046.28;;;9.03;100.00
15794;BME280;7999;51.208;4.244;2022-12-20T08:36:53;101045.56;;;9.16;100.00
15794;BME280;7999;51.208;4.244;2022-12-20T08:39:20;101040.34;;;9.10;100.00
15794;BME280;7999;51.208;4.244;2022-12-20T08:41:47;101036.91;;;9.14;100.00
15794;BME280;7999;51.208;4.244;2022-12-20T08:44:13;101046.44;;;9.16;100.00
15794;BME280;7999;51.208;4.244;2022-12-20T08:46:46;101035.16;;;9.10;100.00
15794;BME280;7999;51.208;4.244;2022-12-20T08:49:12;101029.13;;;9.14;100.00
15794;BME280;7999;51.208;4.244;2022-12-20T08:51:39;101033.44;;;9.12;100.00
15794;BME280;7999;51.208;4.244;2022-12-20T08:54:07;101038.59;;;9.09;100.00
15794;BME280;7999;51.208;4.244;2022-12-20T08:56:34;101038.56;;;9.06;100.00
15794;BME280;7999;51.208;4.244;2022-12-20T08:59:00;101035.16;;;9.10;100.00
15794;BME280;7999;51.208;4.244;2022-12-20T09:01:27;101037.66;;;9.04;100.00
15794;BME280;7999;51.208;4.244;2022-12-20T09:03:58;101031.69;;;9.11;100.00
15794;BME280;7999;51.208;4.244;2022-12-20T09:06:25;101036.78;;;9.02;100.00
15794;BME280;7999;51.208;4.244;2022-12-20T09:08:51;101036.00;;;9.07;100.00
15794;BME280;7999;51.208;4.244;2022-12-20T09:11:21;101040.34;;;9.10;100.00
15794;BME280;7999;51.208;4.244;2022-12-20T09:13:50;101034.28;;;9.11;100.00
15794;BME280;7999;51.208;4.244;2022-12-20T09:16:18;101039.50;;;9.15;100.00
15794;BME280;7999;51.208;4.244;2022-12-20T09:18:47;101038.69;;;9.22;100.00
15794;BME280;7999;51.208;4.244;2022-12-20T09:21:17;101039.59;;;9.26;100.00
15794;BME280;7999;51.208;4.244;2022-12-20T09:23:44;101035.22;;;9.19;100.00
15794;BME280;7999;51.208;4.244;2022-12-20T09:26:11;101031.81;;;9.27;100.00
15794;BME280;7999;51.208;4.244;2022-12-20T09:28:40;101038.78;;;9.32;100.00
15794;BME280;7999;51.208;4.244;2022-12-20T09:31:11;101035.34;;;9.34;100.00
15794;BME280;7999;51.208;4.244;2022-12-20T09:33:39;101046.63;;;9.41;100.00
15794;BME280;7999;51.208;4.244;2022-12-20T09:36:09;101040.59;;;9.43;100.00
15794;BME280;7999;51.208;4.244;2022-12-20T09:38:37;101031.94;;;9.43;100.00
15794;BME280;7999;51.208;4.244;2022-12-20T09:41:04;101038.00;;;9.42;100.00
15794;BME280;7999;51.208;4.244;2022-12-20T09:43:32;101036.28;;;9.42;100.00
15794;BME280;7999;51.208;4.244;2022-12-20T09:46:01;101036.25;;;9.38;100.00
15794;BME280;7999;51.208;4.244;2022-12-20T09:48:29;101037.88;;;9.28;100.00
15794;BME280;7999;51.208;4.244;2022-12-20T09:51:03;101049.19;;;9.36;100.00
15794;BME280;7999;51.208;4.244;2022-12-20T09:53:36;101035.38;;;9.37;100.00
15794;BME280;7999;51.208;4.244;2022-12-20T09:56:09;101036.19;;;9.32;100.00
15794;BME280;7999;51.208;4.244;2022-12-20T09:58:42;101036.16;;;9.30;100.00
15794;BME280;7999;51.208;4.244;2022-12-20T10:01:16;101042.19;;;9.29;100.00
15794;BME280;7999;51.208;4.244;2022-12-20T10:03:44;101047.38;;;9.26;100.00
15794;BME280;7999;51.208;4.244;2022-12-20T10:06:13;101042.19;;;9.26;100.00
15794;BME280;7999;51.208;4.244;2022-12-20T10:08:43;101035.34;;;9.33;100.00
15794;BME280;7999;51.208;4.244;2022-12-20T10:11:14;101041.34;;;9.28;100.00
15794;BME280;7999;51.208;4.244;2022-12-20T10:13:51;101051.72;;;9.30;100.00
15794;BME280;7999;51.208;4.244;2022-12-20T10:16:27;101039.59;;;9.26;100.00
15794;BME280;7999;51.208;4.244;2022-12-20T10:18:58;101038.72;;;9.27;100.00
15794;BME280;7999;51.208;4.244;2022-12-20T10:21:30;101043.91;;;9.24;100.00
15794;BME280;7999;51.208;4.244;2022-12-20T10:24:02;101045.75;;;9.36;100.00
15794;BME280;7999;51.208;4.244;2022-12-20T10:26:30;101040.47;;;9.28;100.00
15794;BME280;7999;51.208;4.244;2022-12-20T10:28:58;101033.53;;;9.24;100.00
15794;BME280;7999;51.208;4.244;2022-12-20T10:31:26;101043.06;;;9.28;100.00
15794;BME280;7999;51.208;4.244;2022-12-20T10:33:53;101034.44;;;9.30;100.00
15794;BME280;7999;51.208;4.244;2022-12-20T10:36:21;101042.25;;;9.32;100.00
15794;BME280;7999;51.208;4.244;2022-12-20T10:38:51;101037.94;;;9.34;100.00
15794;BME280;7999;51.208;4.244;2022-12-20T10:41:19;101035.34;;;9.34;100.00
15794;BME280;7999;51.208;4.244;2022-12-20T10:43:49;101031.03;;;9.36;100.00
15794;BME280;7999;51.208;4.244;2022-12-20T10:46:18;101036.25;;;9.38;100.00
15794;BME280;7999;51.208;4.244;2022-12-20T10:48:46;101030.22;;;9.43;100.00
15794;BME280;7999;51.208;4.244;2022-12-20T10:51:16;101024.19;;;9.46;100.00
15794;BME280;7999;51.208;4.244;2022-12-20T10:53:50;101025.88;;;9.41;100.00
15794;BME280;7999;51.208;4.244;2022-12-20T10:56:18;101038.88;;;9.42;100.00
15794;BME280;7999;51.208;4.244;2022-12-20T10:58:50;101039.69;;;9.38;100.00
15794;BME280;7999;51.208;4.244;2022-12-20T11:01:18;101031.06;;;9.41;100.00
15794;BME280;7999;51.208;4.244;2022-12-20T11:03:50;101022.38;;;9.36;100.00
15794;BME280;7999;51.208;4.244;2022-12-20T11:06:17;101026.72;;;9.35;100.00
15794;BME280;7999;51.208;4.244;2022-12-20T11:08:45;101025.88;;;9.38;100.00
15794;BME280;7999;51.208;4.244;2022-12-20T11:11:14;101029.28;;;9.34;100.00
15794;BME280;7999;51.208;4.244;2022-12-20T11:13:43;101018.09;;;9.39;100.00
15794;BME280;7999;51.208;4.244;2022-12-20T11:16:25;101017.25;;;9.42;100.00
15794;BME280;7999;51.208;4.244;2022-12-20T11:18:57;101018.06;;;9.36;100.00
15794;BME280;7999;51.208;4.244;2022-12-20T11:21:26;101015.50;;;9.41;100.00
15794;BME280;7999;51.208;4.244;2022-12-20T11:23:57;101004.25;;;9.40;100.00
15794;BME280;7999;51.208;4.244;2022-12-20T11:26:29;101000.81;;;9.44;100.00
15794;BME280;7999;51.208;4.244;2022-12-20T11:29:08;101000.84;;;9.47;100.00
15794;BME280;7999;51.208;4.244;2022-12-20T11:31:43;101003.47;;;9.53;100.00
15794;BME280;7999;51.208;4.244;2022-12-20T11:34:18;100997.41;;;9.54;100.00
15794;BME280;7999;51.208;4.244;2022-12-20T11:37:01;100997.44;;;9.57;100.00
15794;BME280;7999;51.208;4.244;2022-12-20T11:39:33;101003.50;;;9.58;100.00
15794;BME280;7999;51.208;4.244;2022-12-20T11:42:06;100995.69;;;9.53;100.00
15794;BME280;7999;51.208;4.244;2022-12-20T11:44:45;100994.81;;;9.56;100.00
15794;BME280;7999;51.208;4.244;2022-12-20T11:47:20;100999.22;;;9.65;100.00
15794;BME280;7999;51.208;4.244;2022-12-20T11:49:56;100993.09;;;9.58;100.00
15794;BME280;7999;51.208;4.244;2022-12-20T11:52:32;100993.09;;;9.56;100.00
15794;BME280;7999;51.208;4.244;2022-12-20T11:55:02;100984.44;;;9.56;100.00
15794;BME280;7999;51.208;4.244;2022-12-20T11:57:34;100984.44;;;9.54;100.00
15794;BME280;7999;51.208;4.244;2022-12-20T12:00:04;100985.38;;;9.63;100.00
15794;BME280;7999;51.208;4.244;2022-12-20T12:02:39;100984.50;;;9.64;100.00
15794;BME280;7999;51.208;4.244;2022-12-20T12:05:13;100996.56;;;9.57;100.00
15794;BME280;7999;51.208;4.244;2022-12-20T12:07:43;100995.75;;;9.64;100.00
15794;BME280;7999;51.208;4.244;2022-12-20T12:10:14;100987.03;;;9.54;100.00
15794;BME280;7999;51.208;4.244;2022-12-20T12:12:44;100985.31;;;9.53;100.00
15794;BME280;7999;51.208;4.244;2022-12-20T12:15:16;100987.88;;;9.49;100.00
15794;BME280;7999;51.208;4.244;2022-12-20T12:17:45;100985.25;;;9.44;100.00
15794;BME280;7999;51.208;4.244;2022-12-20T12:20:21;100986.97;;;9.45;100.00
15794;BME280;7999;51.208;4.244;2022-12-20T12:22:52;100980.91;;;9.43;100.00
15794;BME280;7999;51.208;4.244;2022-12-20T12:25:20;100981.81;;;9.51;100.00
15794;BME280;7999;51.208;4.244;2022-12-20T12:27:48;100974.91;;;9.53;100.00
15794;BME280;7999;51.208;4.244;2022-12-20T12:30:15;100973.16;;;9.46;100.00
15794;BME280;7999;51.208;4.244;2022-12-20T12:32:43;100979.19;;;9.45;100.00
15794;BME280;7999;51.208;4.244;2022-12-20T12:35:20;100974.91;;;9.50;100.00
15794;BME280;7999;51.208;4.244;2022-12-20T12:38:09;100966.22;;;9.45;100.00
15794;BME280;7999;51.208;4.244;2022-12-20T12:46:22;100968.81;;;9.44;100.00
15794;BME280;7999;51.208;4.244;2022-12-20T12:48:54;100967.94;;;9.43;100.00
15794;BME280;7999;51.208;4.244;2022-12-20T12:51:25;100969.66;;;9.38;100.00
15794;BME280;7999;51.208;4.244;2022-12-20T12:54:00;100962.72;;;9.37;100.00
15794;BME280;7999;51.208;4.244;2022-12-20T12:56:28;100971.28;;;9.30;100.00
15794;BME280;7999;51.208;4.244;2022-12-20T13:01:47;100971.38;;;9.39;100.00
15794;BME280;7999;51.208;4.244;2022-12-20T13:04:25;100978.31;;;9.40;100.00
15794;BME280;7999;51.208;4.244;2022-12-20T13:06:54;100983.38;;;9.28;100.00
15794;BME280;7999;51.208;4.244;2022-12-20T13:14:52;100969.53;;;9.26;100.00
15794;BME280;7999;51.208;4.244;2022-12-20T13:20:14;100970.41;;;9.26;100.00
15794;BME280;7999;51.208;4.244;2022-12-20T13:22:51;100966.97;;;9.29;100.00
15794;BME280;7999;51.208;4.244;2022-12-20T13:25:30;100960.91;;;9.28;100.00
15794;BME280;7999;51.208;4.244;2022-12-20T13:30:42;100957.53;;;9.34;100.00
15794;BME280;7999;51.208;4.244;2022-12-20T13:41:35;100954.06;;;9.35;100.00
15794;BME280;7999;51.208;4.244;2022-12-20T13:46:46;100961.00;;;9.36;100.00